Aroya, Colorado
Current Conditions -  °F | °C
As of 9:55 PM on Thursday 27 Nov 2014 (Local Time) from KLIC Reporting Station
Clear Clear  
Wind Chill: 22°   Ceiling: Unl
Heat Index: 27°   Visibility: 10mi
Dew Point: 18°   Wind: 5mph
Humidity: 69%   Direction: 340°NNW
Pressure: 30.12"   Gusts: NA
Location:  38.8543°N, 103.125°W
Report Text: KLIC 280455Z AUTO 34004KT 10SM CLR M03/M08 A3012 RMK AO2 SLP201 T10281078
Loading
Personal Weather Stations






























Interactive Weather Map New forecast layout! Learn more

10-Day Weather Forecast

Advertisements
Track Severe Weather on mobile